createdAt,value
2017-11-12T00:01:01.859Z,3.50
2017-11-12T00:03:30.140Z,2.00
2017-11-12T00:05:58.422Z,2.40
2017-11-12T00:08:26.705Z,2.90
2017-11-12T00:10:54.983Z,3.15
2017-11-12T00:13:23.759Z,3.63
2017-11-12T00:15:52.054Z,3.90
2017-11-12T00:18:20.334Z,3.93
2017-11-12T00:20:48.617Z,4.27
2017-11-12T00:23:16.905Z,5.73
2017-11-12T00:25:45.196Z,2.83
2017-11-12T00:28:13.493Z,3.60
2017-11-12T00:30:41.788Z,4.15
2017-11-12T00:33:10.069Z,7.25
2017-11-12T00:35:38.355Z,2.60
2017-11-12T00:38:06.638Z,2.53
2017-11-12T00:40:34.926Z,3.72
2017-11-12T00:43:03.202Z,3.80
2017-11-12T00:45:31.478Z,2.53
2017-11-12T00:47:59.757Z,6.53
2017-11-12T00:50:28.038Z,5.17
2017-11-12T00:52:56.314Z,6.67
2017-11-12T00:55:24.609Z,4.93
2017-11-12T00:57:52.897Z,3.08
2017-11-12T01:00:21.190Z,4.47
2017-11-12T01:02:49.473Z,4.80
2017-11-12T01:05:17.741Z,6.00
2017-11-12T01:07:46.026Z,7.30
2017-11-12T01:10:14.352Z,5.07
2017-11-12T01:12:42.622Z,2.90
2017-11-12T01:15:10.897Z,4.62
2017-11-12T01:17:39.173Z,4.93
2017-11-12T01:20:07.454Z,8.07
2017-11-12T01:22:35.737Z,5.72
2017-11-12T01:25:04.018Z,4.63
2017-11-12T01:27:32.297Z,4.90
2017-11-12T01:30:01.346Z,5.20
2017-11-12T01:32:30.865Z,5.03
2017-11-12T01:34:59.141Z,5.63
2017-11-12T01:37:27.415Z,8.77
2017-11-12T01:39:55.697Z,6.00
2017-11-12T01:42:23.980Z,6.07
2017-11-12T01:44:52.261Z,4.30
2017-11-12T01:47:20.523Z,6.50
2017-11-12T01:49:48.805Z,4.95
2017-11-12T01:52:17.093Z,6.43
2017-11-12T01:54:45.368Z,4.97
2017-11-12T01:57:13.657Z,5.47
2017-11-12T01:59:41.935Z,5.70
2017-11-12T02:02:10.223Z,11.70
2017-11-12T02:04:39.288Z,8.02
2017-11-12T02:07:07.582Z,9.27
2017-11-12T02:09:37.560Z,6.93
2017-11-12T02:12:06.461Z,9.47
2017-11-12T02:14:34.769Z,5.93
2017-11-12T02:17:03.050Z,5.80
2017-11-12T02:19:31.345Z,10.50
2017-11-12T02:21:59.631Z,5.10
2017-11-12T02:24:27.913Z,3.87
2017-11-12T02:26:56.219Z,4.73
2017-11-12T02:29:24.498Z,3.27
2017-11-12T02:31:52.781Z,3.05
2017-11-12T02:34:21.070Z,3.83
2017-11-12T02:36:50.125Z,6.93
2017-11-12T02:39:18.403Z,8.00
2017-11-12T02:41:46.685Z,3.77
2017-11-12T02:44:14.965Z,5.93
2017-11-12T02:46:43.761Z,4.07
2017-11-12T02:49:12.132Z,2.40
2017-11-12T02:51:40.418Z,7.23
2017-11-12T02:54:08.702Z,3.23
2017-11-12T02:56:36.993Z,3.37
2017-11-12T02:59:05.286Z,3.13
2017-11-12T03:01:33.577Z,3.23
2017-11-12T03:04:01.854Z,3.92
2017-11-12T03:06:30.145Z,6.07
2017-11-12T03:08:58.426Z,3.30
2017-11-12T03:11:26.718Z,9.00
2017-11-12T03:13:55.006Z,5.83
2017-11-12T03:16:23.273Z,5.03
2017-11-12T03:18:51.551Z,4.90
2017-11-12T03:21:19.833Z,5.60
2017-11-12T03:23:48.113Z,3.43
2017-11-12T03:26:16.397Z,5.90
2017-11-12T03:28:44.671Z,6.70
2017-11-12T03:31:14.190Z,5.00
2017-11-12T03:33:42.469Z,5.17
2017-11-12T03:36:10.757Z,4.60
2017-11-12T03:38:39.817Z,8.60
2017-11-12T03:41:08.089Z,7.70
2017-11-12T03:43:36.366Z,5.07
2017-11-12T03:46:04.660Z,4.70
2017-11-12T03:48:32.917Z,7.80
2017-11-12T03:51:01.192Z,7.03
2017-11-12T03:53:29.478Z,5.70
2017-11-12T03:55:57.760Z,6.13
2017-11-12T03:58:26.029Z,4.80
2017-11-12T04:00:54.308Z,6.50
2017-11-12T04:03:22.585Z,5.60
2017-11-12T04:05:50.860Z,6.03
2017-11-12T04:08:19.177Z,6.50
2017-11-12T04:10:48.208Z,7.20
2017-11-12T04:13:16.476Z,5.90
2017-11-12T04:15:44.769Z,6.90
2017-11-12T04:18:13.037Z,8.00
2017-11-12T04:20:41.304Z,6.33
2017-11-12T04:23:09.574Z,6.00
2017-11-12T04:25:37.854Z,6.47
2017-11-12T04:28:06.130Z,7.87
2017-11-12T04:30:34.447Z,4.43
2017-11-12T04:33:02.754Z,8.10
2017-11-12T04:35:31.033Z,7.33
2017-11-12T04:37:59.330Z,6.17
2017-11-12T04:40:27.607Z,7.83
2017-11-12T04:42:55.886Z,8.48
2017-11-12T04:45:24.173Z,9.10
2017-11-12T04:47:52.453Z,7.33
2017-11-12T04:50:20.717Z,9.43
2017-11-12T04:52:49.009Z,12.45
2017-11-12T04:55:17.284Z,6.23
2017-11-12T04:57:45.562Z,6.00
2017-11-12T05:00:14.065Z,7.95
2017-11-12T05:02:42.865Z,7.73
2017-11-12T05:05:11.141Z,7.83
2017-11-12T05:07:41.381Z,8.03
2017-11-12T05:10:10.422Z,6.83
2017-11-12T05:12:38.698Z,10.10
2017-11-12T05:15:06.978Z,6.32
2017-11-12T05:17:35.265Z,8.83
2017-11-12T05:20:03.554Z,8.60
2017-11-12T05:22:31.826Z,8.03
2017-11-12T05:25:00.125Z,7.60
2017-11-12T05:27:28.394Z,6.13
2017-11-12T05:29:57.442Z,5.63
2017-11-12T05:32:25.716Z,6.27
2017-11-12T05:34:54.245Z,5.32
2017-11-12T05:37:22.522Z,6.17
2017-11-12T05:39:51.577Z,11.87
2017-11-12T05:42:19.855Z,8.13
2017-11-12T05:44:48.132Z,8.70
2017-11-12T05:47:16.422Z,6.70
2017-11-12T05:49:44.693Z,7.57
2017-11-12T05:52:12.972Z,9.50
2017-11-12T05:54:41.245Z,7.20
2017-11-12T05:57:09.524Z,8.20
2017-11-12T05:59:37.813Z,10.57
2017-11-12T06:02:06.097Z,12.20
2017-11-12T06:04:34.373Z,9.20
2017-11-12T06:07:03.414Z,8.40
2017-11-12T06:09:31.701Z,10.30
2017-11-12T06:11:59.978Z,5.93
2017-11-12T06:14:28.268Z,4.23
2017-11-12T06:16:56.550Z,7.75
2017-11-12T06:19:24.829Z,8.30
2017-11-12T06:21:53.117Z,5.90
2017-11-12T06:24:21.397Z,7.83
2017-11-12T06:26:50.442Z,13.47
2017-11-12T06:29:18.740Z,10.77
2017-11-12T06:31:47.029Z,9.00
2017-11-12T06:34:15.324Z,11.00
2017-11-12T06:36:43.614Z,10.47
2017-11-12T06:39:11.911Z,9.50
2017-11-12T06:41:40.193Z,11.87
2017-11-12T06:44:08.476Z,8.40
2017-11-12T06:46:36.753Z,8.63
2017-11-12T06:49:05.033Z,8.57
2017-11-12T06:51:33.317Z,6.80
2017-11-12T06:54:01.602Z,9.30
2017-11-12T06:56:30.651Z,8.00
2017-11-12T06:58:58.936Z,8.32
2017-11-12T07:01:27.222Z,10.50
2017-11-12T07:03:55.505Z,10.83
2017-11-12T07:06:23.785Z,11.13
2017-11-12T07:08:52.070Z,13.18
2017-11-12T07:11:20.357Z,8.73
2017-11-12T07:13:48.649Z,10.27
2017-11-12T07:16:16.933Z,11.60
2017-11-12T07:18:45.227Z,15.60
2017-11-12T07:21:13.562Z,10.20
2017-11-12T07:23:41.858Z,13.93
2017-11-12T07:26:10.142Z,14.67
2017-11-12T07:28:38.442Z,11.47
2017-11-12T07:31:06.722Z,13.10
2017-11-12T07:33:35.010Z,11.87
2017-11-12T07:36:03.293Z,11.73
2017-11-12T07:38:31.587Z,10.97
2017-11-12T07:40:59.878Z,12.93
2017-11-12T07:43:28.163Z,13.23
2017-11-12T07:45:56.453Z,13.83
2017-11-12T07:48:24.738Z,16.48
2017-11-12T07:50:54.006Z,12.10
2017-11-12T07:53:23.089Z,15.97
2017-11-12T07:55:51.373Z,14.70
2017-11-12T07:58:19.659Z,20.87
2017-11-12T08:00:47.958Z,18.33
2017-11-12T08:03:16.253Z,13.50
2017-11-12T08:05:44.544Z,13.60
2017-11-12T08:08:12.829Z,12.90
2017-11-12T08:10:41.136Z,14.63
2017-11-12T08:13:09.423Z,16.60
2017-11-12T08:15:37.711Z,13.93
2017-11-12T08:18:05.994Z,13.30
2017-11-12T08:20:34.274Z,14.10
2017-11-12T08:23:03.321Z,15.88
2017-11-12T08:25:31.611Z,13.60
2017-11-12T08:27:59.894Z,17.70
2017-11-12T08:30:28.186Z,13.63
2017-11-12T08:32:56.469Z,14.13
2017-11-12T08:35:24.778Z,18.37
2017-11-12T08:37:53.073Z,15.80
2017-11-12T08:40:21.353Z,14.03
2017-11-12T08:42:49.634Z,16.97
2017-11-12T08:45:17.919Z,19.73
2017-11-12T08:47:46.197Z,16.30
2017-11-12T08:50:14.532Z,19.57
2017-11-12T08:52:42.809Z,18.25
2017-11-12T08:55:11.084Z,21.50
2017-11-12T08:57:39.359Z,20.17
2017-11-12T09:00:07.629Z,16.17
2017-11-12T09:02:35.911Z,15.10
2017-11-12T09:05:04.193Z,17.00
2017-11-12T09:07:32.849Z,18.50
2017-11-12T09:10:01.891Z,21.00
2017-11-12T09:12:30.189Z,24.83
2017-11-12T09:14:58.473Z,14.65
2017-11-12T09:17:26.772Z,20.12
2017-11-12T09:19:55.054Z,19.13
2017-11-12T09:22:24.101Z,21.37
2017-11-12T09:24:52.389Z,28.00
2017-11-12T09:27:20.668Z,28.20
2017-11-12T09:29:49.978Z,22.73
2017-11-12T09:32:18.878Z,19.43
2017-11-12T09:34:47.174Z,18.93
2017-11-12T09:37:15.469Z,20.80
2017-11-12T09:39:43.758Z,17.07
2017-11-12T09:42:12.062Z,16.40
2017-11-12T09:44:40.433Z,25.70
2017-11-12T09:47:08.714Z,29.37
2017-11-12T09:49:37.018Z,18.17
2017-11-12T09:52:05.291Z,21.10
2017-11-12T09:54:33.785Z,21.10
2017-11-12T09:57:02.082Z,20.37
2017-11-12T09:59:30.367Z,15.03
2017-11-12T10:01:58.666Z,19.60
2017-11-12T10:04:26.947Z,13.67
2017-11-12T10:06:55.254Z,18.00
2017-11-12T10:09:23.541Z,14.27
2017-11-12T10:11:52.626Z,19.20
2017-11-12T10:14:20.914Z,15.93
2017-11-12T10:16:49.969Z,20.60
2017-11-12T10:19:18.261Z,13.87
2017-11-12T10:21:47.409Z,13.50
2017-11-12T10:24:15.723Z,19.73
2017-11-12T10:26:44.005Z,24.57
2017-11-12T10:29:12.282Z,18.80
2017-11-12T10:31:40.560Z,16.30
2017-11-12T10:34:08.857Z,11.07
2017-11-12T10:36:37.894Z,7.47
2017-11-12T10:39:06.184Z,7.62
2017-11-12T10:41:34.473Z,9.70
2017-11-12T10:44:02.749Z,31.63
2017-11-12T10:46:31.670Z,8.10
2017-11-12T10:49:00.724Z,8.40
2017-11-12T10:51:29.001Z,7.23
2017-11-12T10:53:57.287Z,10.10
2017-11-12T10:56:25.562Z,9.97
2017-11-12T10:58:53.858Z,11.30
2017-11-12T11:01:22.146Z,10.43
2017-11-12T11:03:50.422Z,9.67
2017-11-12T11:06:18.717Z,7.73
2017-11-12T11:08:47.021Z,6.10
2017-11-12T11:11:16.122Z,7.05
2017-11-12T11:13:44.421Z,7.20
2017-11-12T11:16:12.702Z,4.60
2017-11-12T11:18:40.980Z,4.50
2017-11-12T11:21:09.261Z,3.65
2017-11-12T11:23:37.546Z,5.27
2017-11-12T11:26:05.828Z,4.12
2017-11-12T11:28:34.101Z,3.30
2017-11-12T11:31:02.389Z,4.67
2017-11-12T11:33:30.678Z,4.43
2017-11-12T11:35:58.952Z,4.17
2017-11-12T11:38:27.227Z,4.00
2017-11-12T11:40:55.493Z,5.20
2017-11-12T11:43:23.783Z,2.50
2017-11-12T11:45:52.064Z,4.20
2017-11-12T11:48:20.943Z,3.27
2017-11-12T11:50:49.257Z,5.13
2017-11-12T11:53:17.538Z,5.35
2017-11-12T11:55:45.825Z,3.35
2017-11-12T11:58:14.281Z,4.47
2017-11-12T12:00:42.603Z,3.90
2017-11-12T12:03:10.889Z,3.92
2017-11-12T12:05:39.167Z,3.30
2017-11-12T12:08:08.200Z,4.47
2017-11-12T12:10:37.340Z,4.67
2017-11-12T12:13:05.611Z,4.93
2017-11-12T12:15:33.888Z,3.60
2017-11-12T12:18:02.156Z,3.97
2017-11-12T12:20:30.442Z,6.83
2017-11-12T12:22:58.708Z,5.10
2017-11-12T12:25:26.996Z,6.23
2017-11-12T12:27:55.838Z,6.53
2017-11-12T12:30:24.110Z,5.33
2017-11-12T12:32:52.390Z,4.43
2017-11-12T12:35:20.663Z,4.32
2017-11-12T12:37:48.946Z,4.80
2017-11-12T12:40:17.232Z,5.67
2017-11-12T12:42:45.506Z,5.10
2017-11-12T12:45:13.793Z,5.95
2017-11-12T12:47:42.081Z,5.53
2017-11-12T12:50:10.365Z,4.70
2017-11-12T12:52:38.669Z,8.03
2017-11-12T12:55:07.776Z,7.70
2017-11-12T12:57:36.127Z,4.37
2017-11-12T13:00:04.422Z,3.67
2017-11-12T13:02:33.502Z,3.13
2017-11-12T13:05:01.793Z,4.50
2017-11-12T13:07:30.845Z,2.30
2017-11-12T13:09:59.126Z,3.90
2017-11-12T13:12:27.443Z,6.10
2017-11-12T13:14:55.736Z,5.17
2017-11-12T13:17:24.031Z,4.57
2017-11-12T13:19:52.309Z,2.17
2017-11-12T13:22:20.654Z,3.00
2017-11-12T13:24:48.919Z,1.80
2017-11-12T13:27:17.225Z,2.58
2017-11-12T13:29:45.525Z,3.83
2017-11-12T13:32:13.809Z,2.77
2017-11-12T13:34:42.101Z,1.73
2017-11-12T13:37:10.407Z,2.47
2017-11-12T13:39:39.494Z,2.27
2017-11-12T13:42:07.745Z,1.80
2017-11-12T13:44:36.021Z,1.60
2017-11-12T13:47:04.313Z,1.77
2017-11-12T13:49:32.613Z,1.70
2017-11-12T13:52:00.924Z,1.20
2017-11-12T13:54:29.197Z,1.10
2017-11-12T13:56:57.487Z,1.20
2017-11-12T13:59:25.804Z,1.03
2017-11-12T14:01:54.859Z,1.20
2017-11-12T14:04:23.157Z,1.70
2017-11-12T14:06:51.442Z,2.20
2017-11-12T14:09:19.739Z,1.70
2017-11-12T14:11:48.035Z,2.07
2017-11-12T14:14:16.338Z,1.80
2017-11-12T14:16:45.117Z,1.70
2017-11-12T14:19:13.429Z,3.30
2017-11-12T14:21:41.736Z,3.17
2017-11-12T14:24:10.136Z,2.97
2017-11-12T14:26:38.630Z,2.50
2017-11-12T14:29:07.072Z,1.13
2017-11-12T14:31:35.468Z,0.70
2017-11-12T14:34:03.817Z,0.73
2017-11-12T14:36:32.102Z,1.07
2017-11-12T14:39:01.584Z,4.27
2017-11-12T14:41:30.774Z,3.10
2017-11-12T14:44:00.412Z,2.53
2017-11-12T14:46:29.905Z,1.40
2017-11-12T14:48:58.353Z,1.03
2017-11-12T14:51:26.829Z,1.45
2017-11-12T14:53:55.270Z,1.20
2017-11-12T14:56:23.584Z,1.80
2017-11-12T14:58:51.946Z,1.75
2017-11-12T15:01:20.850Z,1.02
2017-11-12T15:03:49.302Z,0.67
2017-11-12T15:06:17.711Z,0.90
2017-11-12T15:08:46.205Z,0.37
2017-11-12T15:11:15.379Z,1.37
2017-11-12T15:13:44.167Z,0.87
2017-11-12T15:16:13.311Z,0.67
2017-11-12T15:18:41.934Z,0.50
2017-11-12T15:21:10.520Z,0.70
2017-11-12T15:23:39.519Z,1.10
2017-11-12T15:26:08.073Z,0.87
2017-11-12T15:28:36.712Z,1.10
2017-11-12T15:31:05.051Z,3.13
2017-11-12T15:33:35.443Z,0.90
2017-11-12T15:36:04.326Z,1.20
2017-11-12T15:38:33.118Z,0.70
2017-11-12T15:41:01.520Z,0.70
2017-11-12T15:43:29.946Z,0.40
2017-11-12T15:45:58.583Z,0.77
2017-11-12T15:48:27.165Z,3.63
2017-11-12T15:50:55.750Z,0.77
2017-11-12T15:53:24.206Z,0.62
2017-11-12T15:55:53.936Z,0.80
2017-11-12T15:58:23.063Z,1.00
2017-11-12T16:00:51.622Z,0.80
2017-11-12T16:03:22.700Z,0.60
2017-11-12T16:05:51.477Z,0.50
2017-11-12T16:08:20.103Z,0.60
2017-11-12T16:10:48.611Z,0.60
2017-11-12T16:13:17.061Z,0.93
2017-11-12T16:15:46.138Z,0.70
2017-11-12T16:18:14.486Z,0.90
2017-11-12T16:20:42.812Z,1.90
2017-11-12T16:23:11.152Z,1.33
2017-11-12T16:25:39.437Z,1.23
2017-11-12T16:28:08.409Z,1.37
2017-11-12T16:30:37.397Z,4.10
2017-11-12T16:33:06.282Z,4.60
2017-11-12T16:35:34.791Z,1.30
2017-11-12T16:38:04.075Z,0.87
2017-11-12T16:40:34.441Z,1.20
2017-11-12T16:43:04.060Z,7.97
2017-11-12T16:45:33.485Z,5.25
2017-11-12T16:48:02.512Z,5.40
2017-11-12T16:50:31.517Z,2.92
2017-11-12T16:53:01.886Z,2.53
2017-11-12T16:55:31.565Z,1.92
2017-11-12T16:58:00.381Z,1.23
2017-11-12T17:00:29.205Z,2.20
2017-11-12T17:02:58.066Z,0.70
2017-11-12T17:05:27.091Z,1.23
2017-11-12T17:07:56.571Z,2.10
2017-11-12T17:10:26.278Z,2.30
2017-11-12T17:12:56.215Z,5.47
2017-11-12T17:15:26.764Z,3.20
2017-11-12T17:17:56.094Z,6.80
2017-11-12T17:20:25.003Z,6.53
2017-11-12T17:22:55.517Z,2.60
2017-11-12T17:25:24.442Z,3.50
2017-11-12T17:27:54.123Z,3.08
2017-11-12T17:30:23.861Z,1.77
2017-11-12T17:32:53.598Z,2.23
2017-11-12T17:35:24.238Z,2.72
2017-11-12T17:37:53.946Z,2.77
2017-11-12T17:40:24.022Z,3.33
2017-11-12T17:42:53.686Z,2.50
2017-11-12T17:45:24.940Z,2.00
2017-11-12T17:47:54.743Z,2.50
2017-11-12T17:50:24.501Z,1.80
2017-11-12T17:52:54.238Z,2.55
2017-11-12T17:55:24.401Z,2.12
2017-11-12T17:57:54.157Z,1.65
2017-11-12T18:00:24.391Z,3.07
2017-11-12T18:02:53.936Z,4.20
2017-11-12T18:05:23.855Z,2.67
2017-11-12T18:07:53.670Z,6.80
2017-11-12T18:10:23.354Z,4.43
2017-11-12T18:12:53.132Z,5.00
2017-11-12T18:15:23.806Z,5.87
2017-11-12T18:17:53.683Z,5.87
2017-11-12T18:20:23.599Z,5.07
2017-11-12T18:22:53.319Z,6.40
2017-11-12T18:25:23.129Z,5.70
2017-11-12T18:27:52.916Z,5.33
2017-11-12T18:30:23.546Z,7.73
2017-11-12T18:32:53.546Z,3.60
2017-11-12T18:35:23.476Z,4.20
2017-11-12T18:37:53.262Z,4.40
2017-11-12T18:40:23.223Z,3.23
2017-11-12T18:42:53.133Z,3.07
2017-11-12T18:45:23.685Z,4.20
2017-11-12T18:47:53.647Z,5.20
2017-11-12T18:50:23.572Z,4.93
2017-11-12T18:52:53.570Z,7.50
2017-11-12T18:55:23.440Z,5.10
2017-11-12T18:58:04.151Z,5.40
2017-11-12T19:00:39.229Z,6.57
2017-11-12T19:06:21.079Z,2.50
2017-11-12T19:08:53.901Z,4.33
2017-11-12T19:11:24.862Z,10.97
2017-11-12T19:13:54.839Z,4.17
2017-11-12T19:16:25.408Z,2.07
2017-11-12T19:22:03.408Z,4.27
2017-11-12T19:24:35.914Z,5.17
2017-11-12T19:27:15.761Z,3.83
2017-11-12T19:29:45.772Z,1.95
2017-11-12T19:32:15.784Z,1.97
2017-11-12T19:34:45.626Z,2.77
2017-11-12T19:37:15.448Z,2.80
2017-11-12T19:39:45.398Z,2.90
2017-11-12T19:42:16.025Z,2.45
2017-11-12T19:44:45.887Z,5.60
2017-11-12T19:47:15.686Z,3.00
2017-11-12T19:49:45.774Z,3.28
2017-11-12T19:52:15.622Z,3.03
2017-11-12T19:54:45.444Z,6.40
2017-11-12T19:57:15.327Z,2.50
2017-11-12T19:59:45.151Z,4.40
2017-11-12T20:02:15.013Z,4.43
2017-11-12T20:04:44.851Z,5.70
2017-11-12T20:07:15.582Z,3.33
2017-11-12T20:09:45.481Z,5.30
2017-11-12T20:12:15.385Z,2.55
2017-11-12T20:14:46.129Z,3.20
2017-11-12T20:17:16.006Z,3.93
2017-11-12T20:19:46.557Z,2.22
2017-11-12T20:22:16.563Z,1.80
2017-11-12T20:24:46.586Z,2.33
2017-11-12T20:27:16.419Z,1.70
2017-11-12T20:29:46.484Z,1.80
2017-11-12T20:32:16.474Z,3.67
2017-11-12T20:34:46.381Z,2.47
2017-11-12T20:37:16.387Z,1.97
2017-11-12T20:39:46.295Z,2.80
2017-11-12T20:42:16.220Z,3.85
2017-11-12T20:44:46.142Z,4.33
2017-11-12T20:47:16.099Z,3.30
2017-11-12T20:49:46.120Z,5.20
2017-11-12T20:52:19.583Z,4.80
2017-11-12T20:54:49.550Z,10.20
2017-11-12T20:57:19.533Z,7.33
2017-11-12T20:59:49.466Z,8.00
2017-11-12T21:02:20.917Z,6.87
2017-11-12T21:04:57.109Z,8.13
2017-11-12T21:07:27.013Z,5.70
2017-11-12T21:09:56.972Z,9.33
2017-11-12T21:12:27.831Z,6.73
2017-11-12T21:14:57.707Z,7.93
2017-11-12T21:17:27.665Z,10.43
2017-11-12T21:19:58.362Z,7.33
2017-11-12T21:22:30.782Z,8.73
2017-11-12T21:25:00.708Z,6.87
2017-11-12T21:27:31.101Z,6.57
2017-11-12T21:30:02.640Z,5.47
2017-11-12T21:35:46.655Z,4.67
2017-11-12T21:38:16.584Z,1.57
2017-11-12T21:40:46.443Z,2.70
2017-11-12T21:43:16.997Z,1.60
2017-11-12T21:45:46.623Z,2.45
2017-11-12T21:48:16.723Z,1.53
2017-11-12T21:50:46.163Z,2.20
2017-11-12T21:53:15.824Z,6.47
2017-11-12T21:55:44.298Z,14.10
2017-11-12T21:58:13.032Z,11.50
2017-11-12T22:00:42.306Z,10.00
2017-11-12T22:03:11.019Z,14.20
2017-11-12T22:05:41.105Z,12.40
2017-11-12T22:08:09.432Z,9.37
2017-11-12T22:10:37.778Z,11.48
2017-11-12T22:13:06.066Z,8.37
2017-11-12T22:15:34.361Z,11.77
2017-11-12T22:18:02.670Z,11.27
2017-11-12T22:20:30.969Z,8.93
2017-11-12T22:22:59.254Z,6.30
2017-11-12T22:25:27.538Z,6.40
2017-11-12T22:27:55.851Z,8.47
2017-11-12T22:30:24.901Z,11.00
2017-11-12T22:32:53.196Z,11.93
2017-11-12T22:35:22.449Z,9.27
2017-11-12T22:37:50.728Z,13.57
2017-11-12T22:40:19.015Z,12.40
2017-11-12T22:42:47.297Z,11.00
2017-11-12T22:45:15.586Z,15.87
2017-11-12T22:47:43.908Z,13.05
2017-11-12T22:50:12.194Z,12.47
2017-11-12T22:52:40.498Z,11.80
2017-11-12T22:55:08.783Z,17.77
2017-11-12T22:57:37.064Z,13.83
2017-11-12T23:00:05.413Z,15.10
2017-11-12T23:02:33.689Z,14.13
2017-11-12T23:05:01.974Z,10.27
2017-11-12T23:07:30.259Z,8.63
2017-11-12T23:09:58.578Z,6.07
2017-11-12T23:12:26.833Z,6.33
2017-11-12T23:14:56.022Z,6.10
2017-11-12T23:17:24.305Z,6.87
2017-11-12T23:19:52.585Z,2.62
2017-11-12T23:22:20.871Z,4.70
2017-11-12T23:24:49.158Z,5.50
2017-11-12T23:27:18.202Z,2.57
2017-11-12T23:29:46.468Z,9.00
2017-11-12T23:32:14.745Z,10.88
2017-11-12T23:34:43.012Z,8.33
2017-11-12T23:37:11.929Z,6.00
2017-11-12T23:39:40.201Z,4.00
2017-11-12T23:42:08.536Z,4.23
2017-11-12T23:44:36.816Z,3.93
2017-11-12T23:47:05.097Z,3.60
2017-11-12T23:49:33.374Z,4.43
2017-11-12T23:52:01.661Z,2.85
2017-11-12T23:54:29.951Z,5.30
2017-11-12T23:56:58.231Z,5.03
2017-11-12T23:59:26.521Z,11.47
